Time;durP1;ratioP1;P1;durP2;ratioP2;P2;SDS_P1;SDS_P2;PMS_P1;PMS_P2;Temp;Humidity;BMP_temperature;BMP_pressure;BME280_temperature;BME280_humidity;BME280_pressure;Samples;Min_cycle;Max_cycle;Signal;HPM_P1;HPM_P2
2021/05/26 00:00:16;;;;;;;1.90;1.38;;;;;;;;;;5029414;28;20498;-80
2021/05/26 00:02:42;;;;;;;2.80;2.45;;;;;;;;;;5025163;28;20030;-80
2021/05/26 00:05:10;;;;;;;2.88;1.92;;;;;;;;;;5012243;28;20398;-80
2021/05/26 00:07:36;;;;;;;2.63;2.05;;;;;;;;;;5010256;28;20467;-80
2021/05/26 00:10:04;;;;;;;4.45;1.35;;;;;;;;;;5018608;28;20042;-80
2021/05/26 00:12:31;;;;;;;1.52;1.33;;;;;;;;;;4995234;28;20045;-80
2021/05/26 00:14:58;;;;;;;1.50;1.30;;;;;;;;;;5006052;28;20045;-80
2021/05/26 00:17:25;;;;;;;3.95;1.88;;;;;;;;;;5030074;28;20052;-80
2021/05/26 00:19:52;;;;;;;2.25;1.70;;;;;;;;;;5009507;28;20038;-80
2021/05/26 00:22:19;;;;;;;1.40;1.27;;;;;;;;;;5026611;28;20092;-80
2021/05/26 00:24:46;;;;;;;1.85;1.60;;;;;;;;;;5014508;28;20038;-80
2021/05/26 00:27:12;;;;;;;2.58;1.27;;;;;;;;;;5012207;28;20099;-80
2021/05/26 00:29:39;;;;;;;1.40;1.30;;;;;;;;;;5029474;28;20121;-80
2021/05/26 00:32:06;;;;;;;1.77;1.67;;;;;;;;;;5030637;28;20079;-80
2021/05/26 00:34:32;;;;;;;3.40;1.88;;;;;;;;;;5029386;28;20037;-80
2021/05/26 00:36:59;;;;;;;2.90;1.83;;;;;;;;;;5015003;28;20141;-80
2021/05/26 00:39:26;;;;;;;1.52;1.42;;;;;;;;;;5012464;28;20073;-80
2021/05/26 00:41:52;;;;;;;1.65;1.65;;;;;;;;;;5028415;28;20038;-80
2021/05/26 00:44:19;;;;;;;5.55;1.60;;;;;;;;;;5028304;28;20529;-80
2021/05/26 00:46:46;;;;;;;1.35;1.23;;;;;;;;;;5030198;28;20037;-80
2021/05/26 00:49:13;;;;;;;3.08;1.60;;;;;;;;;;5025743;28;20035;-80
2021/05/26 00:51:39;;;;;;;1.35;1.25;;;;;;;;;;5029097;28;20030;-80
2021/05/26 00:54:06;;;;;;;3.10;2.30;;;;;;;;;;5028082;28;20403;-80
2021/05/26 00:56:33;;;;;;;2.75;1.60;;;;;;;;;;5027030;28;20099;-80
2021/05/26 00:59:07;;;;;;;2.30;1.40;;;;;;;;;;5011731;28;20042;-80
2021/05/26 01:01:33;;;;;;;;;;;;;;;;;;5011428;28;20065;-80
2021/05/26 01:04:00;;;;;;;1.85;1.70;;;;;;;;;;5015822;28;20519;-80
2021/05/26 01:06:27;;;;;;;1.58;1.58;;;;;;;;;;5024137;28;20029;-80
2021/05/26 01:08:54;;;;;;;4.30;1.58;;;;;;;;;;5019308;28;20026;-80
2021/05/26 01:11:21;;;;;;;1.55;1.40;;;;;;;;;;5014236;28;20144;-80
2021/05/26 01:13:48;;;;;;;2.92;1.77;;;;;;;;;;5023991;28;20045;-80
2021/05/26 01:16:15;;;;;;;2.63;1.70;;;;;;;;;;5029187;28;20537;-80
2021/05/26 01:18:41;;;;;;;3.65;1.40;;;;;;;;;;5026305;28;20041;-80
2021/05/26 01:21:09;;;;;;;6.22;1.77;;;;;;;;;;5023825;28;20034;-80
2021/05/26 01:23:37;;;;;;;2.15;2.03;;;;;;;;;;5012255;28;20060;-80
2021/05/26 01:26:05;;;;;;;1.50;1.40;;;;;;;;;;5023807;28;20092;-80
2021/05/26 01:28:33;;;;;;;1.50;1.40;;;;;;;;;;5029400;28;20048;-80
2021/05/26 01:30:59;;;;;;;2.20;1.38;;;;;;;;;;5013543;28;20061;-80
2021/05/26 01:33:26;;;;;;;2.10;2.00;;;;;;;;;;5028779;28;20508;-80
2021/05/26 01:35:53;;;;;;;3.33;2.28;;;;;;;;;;5014912;28;20041;-80
2021/05/26 01:38:21;;;;;;;2.63;1.75;;;;;;;;;;5023351;28;20065;-80
2021/05/26 01:40:48;;;;;;;2.63;1.80;;;;;;;;;;5009426;28;20030;-80
2021/05/26 01:43:15;;;;;;;8.27;2.00;;;;;;;;;;5015650;28;20560;-80
2021/05/26 01:45:42;;;;;;;1.67;1.58;;;;;;;;;;5025773;28;20033;-80
2021/05/26 01:48:09;;;;;;;7.93;2.13;;;;;;;;;;5028233;28;20037;-80
2021/05/26 01:50:36;;;;;;;1.95;1.83;;;;;;;;;;5010280;28;20049;-80
2021/05/26 01:53:05;;;;;;;3.20;2.63;;;;;;;;;;5012293;28;20038;-80
2021/05/26 01:55:32;;;;;;;1.80;1.77;;;;;;;;;;5011605;28;20426;-80
2021/05/26 01:57:59;;;;;;;2.15;2.05;;;;;;;;;;5026352;28;20033;-80
2021/05/26 02:00:27;;;;;;;2.05;1.95;;;;;;;;;;5029564;28;20136;-80
2021/05/26 02:02:53;;;;;;;5.40;3.00;;;;;;;;;;5009238;28;20068;-80
2021/05/26 02:05:20;;;;;;;2.42;2.20;;;;;;;;;;5014321;28;20037;-80
2021/05/26 02:07:47;;;;;;;7.78;2.20;;;;;;;;;;5022488;28;20058;-80
2021/05/26 02:10:16;;;;;;;2.25;2.15;;;;;;;;;;5029697;28;20036;-80
2021/05/26 02:12:45;;;;;;;2.63;1.77;;;;;;;;;;5024930;28;20070;-80
2021/05/26 02:15:13;;;;;;;2.83;2.42;;;;;;;;;;5025851;28;20042;-80
2021/05/26 02:17:40;;;;;;;2.55;1.80;;;;;;;;;;5028794;28;20038;-80
2021/05/26 02:20:07;;;;;;;2.38;1.88;;;;;;;;;;5010770;28;20800;-80
2021/05/26 02:22:34;;;;;;;2.50;2.25;;;;;;;;;;5028288;28;20053;-80
2021/05/26 02:25:03;;;;;;;5.10;2.47;;;;;;;;;;5012590;28;20120;-80
2021/05/26 02:27:30;;;;;;;2.53;2.40;;;;;;;;;;5030598;28;20379;-80
2021/05/26 02:29:56;;;;;;;2.10;2.00;;;;;;;;;;5030726;28;20072;-80
2021/05/26 02:32:25;;;;;;;1.77;1.65;;;;;;;;;;5028845;28;20041;-80
2021/05/26 02:34:52;;;;;;;4.13;2.42;;;;;;;;;;5028430;28;20053;-80
2021/05/26 02:37:18;;;;;;;2.17;1.98;;;;;;;;;;5032699;28;20053;-80
2021/05/26 02:39:45;;;;;;;3.40;3.13;;;;;;;;;;5029852;28;20041;-80
2021/05/26 02:42:12;;;;;;;3.05;2.85;;;;;;;;;;5032868;28;20052;-80
2021/05/26 02:44:39;;;;;;;2.85;1.73;;;;;;;;;;5027417;28;20033;-80
2021/05/26 02:47:05;;;;;;;2.25;2.00;;;;;;;;;;5013559;28;20041;-80
2021/05/26 02:49:32;;;;;;;2.22;2.13;;;;;;;;;;5027473;28;20045;-80
2021/05/26 02:51:59;;;;;;;2.42;2.40;;;;;;;;;;5029852;28;20100;-80
2021/05/26 02:54:25;;;;;;;3.22;2.08;;;;;;;;;;5029728;28;20095;-80
2021/05/26 02:56:52;;;;;;;2.38;2.28;;;;;;;;;;5029621;28;20049;-80
2021/05/26 02:59:19;;;;;;;2.83;2.58;;;;;;;;;;5032769;28;20044;-80
2021/05/26 03:01:46;;;;;;;2.35;2.25;;;;;;;;;;5014954;28;20046;-80
2021/05/26 03:04:13;;;;;;;2.40;2.20;;;;;;;;;;5031032;28;20045;-80
2021/05/26 03:06:40;;;;;;;3.70;2.90;;;;;;;;;;5030291;28;20045;-80
2021/05/26 03:09:07;;;;;;;3.85;3.63;;;;;;;;;;5010610;28;20044;-80
2021/05/26 03:11:33;;;;;;;5.35;4.07;;;;;;;;;;5017001;28;20037;-80
2021/05/26 03:14:00;;;;;;;5.03;4.32;;;;;;;;;;5008881;28;20054;-80
2021/05/26 03:16:27;;;;;;;5.20;5.13;;;;;;;;;;5030038;28;20095;-80
2021/05/26 03:18:53;;;;;;;6.97;6.78;;;;;;;;;;5027384;28;20371;-80
2021/05/26 03:21:20;;;;;;;6.80;6.70;;;;;;;;;;5011584;28;20046;-80
2021/05/26 03:23:47;;;;;;;7.72;7.32;;;;;;;;;;5028719;28;20112;-80
2021/05/26 03:26:14;;;;;;;6.72;6.45;;;;;;;;;;5032685;28;20076;-80
2021/05/26 03:28:41;;;;;;;10.60;10.07;;;;;;;;;;5013317;28;20041;-80
2021/05/26 03:31:07;;;;;;;12.32;12.02;;;;;;;;;;5012446;28;20523;-80
2021/05/26 03:33:34;;;;;;;14.63;14.40;;;;;;;;;;5032089;28;20482;-80
2021/05/26 03:36:03;;;;;;;15.00;14.52;;;;;;;;;;5015496;28;20375;-80
2021/05/26 03:38:31;;;;;;;14.68;14.32;;;;;;;;;;5015157;28;20361;-80
2021/05/26 03:40:57;;;;;;;17.63;17.10;;;;;;;;;;5030412;28;20049;-80
2021/05/26 03:43:24;;;;;;;16.63;16.23;;;;;;;;;;5028820;28;21320;-80
2021/05/26 03:45:51;;;;;;;13.75;13.35;;;;;;;;;;5012149;28;20495;-80
2021/05/26 03:48:17;;;;;;;13.57;13.02;;;;;;;;;;5014402;28;20525;-80
2021/05/26 03:50:44;;;;;;;13.07;12.88;;;;;;;;;;5027850;28;20092;-80
2021/05/26 03:53:11;;;;;;;10.07;9.93;;;;;;;;;;5029535;28;20132;-80
2021/05/26 03:55:38;;;;;;;14.40;14.20;;;;;;;;;;5007210;28;20054;-80
2021/05/26 03:58:04;;;;;;;13.05;12.57;;;;;;;;;;5012975;28;20053;-80
2021/05/26 04:00:31;;;;;;;11.40;10.95;;;;;;;;;;5025894;28;20045;-80
2021/05/26 04:02:58;;;;;;;11.13;10.68;;;;;;;;;;5012133;28;20041;-80
2021/05/26 04:05:25;;;;;;;10.20;9.98;;;;;;;;;;5026953;28;20056;-80
2021/05/26 04:07:51;;;;;;;11.05;10.88;;;;;;;;;;5008416;28;20045;-80
2021/05/26 04:10:18;;;;;;;8.73;8.63;;;;;;;;;;5016116;28;20092;-80
2021/05/26 04:12:45;;;;;;;11.13;10.82;;;;;;;;;;5024461;28;20457;-80
2021/05/26 04:15:12;;;;;;;13.52;12.57;;;;;;;;;;4999209;28;20128;-80
2021/05/26 04:17:39;;;;;;;14.10;13.82;;;;;;;;;;5014599;28;20072;-80
2021/05/26 04:20:06;;;;;;;12.07;11.95;;;;;;;;;;5029442;28;20045;-80
2021/05/26 04:22:33;;;;;;;16.92;16.10;;;;;;;;;;5028966;28;20540;-80
2021/05/26 04:25:02;;;;;;;17.00;16.60;;;;;;;;;;5027534;28;20075;-80
2021/05/26 04:27:29;;;;;;;14.25;13.88;;;;;;;;;;5025796;28;20037;-80
2021/05/26 04:29:56;;;;;;;15.20;14.85;;;;;;;;;;5026995;28;20099;-80
2021/05/26 04:32:23;;;;;;;12.93;12.63;;;;;;;;;;5011463;28;20088;-80
2021/05/26 04:34:50;;;;;;;14.65;14.45;;;;;;;;;;5013304;28;20045;-80
2021/05/26 04:37:17;;;;;;;3.85;3.75;;;;;;;;;;5024423;28;20037;-80
2021/05/26 04:39:44;;;;;;;5.90;5.30;;;;;;;;;;5029894;28;20088;-80
2021/05/26 04:42:11;;;;;;;10.18;9.98;;;;;;;;;;5012963;28;20072;-80
2021/05/26 04:44:38;;;;;;;14.18;13.82;;;;;;;;;;5027245;28;20530;-80
2021/05/26 04:47:05;;;;;;;13.75;13.55;;;;;;;;;;5028913;28;20049;-80
2021/05/26 04:49:31;;;;;;;13.15;12.95;;;;;;;;;;5026341;28;20051;-80
2021/05/26 04:51:58;;;;;;;13.80;13.38;;;;;;;;;;5027935;28;20073;-80
2021/05/26 04:54:26;;;;;;;13.65;13.45;;;;;;;;;;5004942;28;20066;-80
2021/05/26 04:56:53;;;;;;;15.23;14.80;;;;;;;;;;5012753;28;20049;-80
2021/05/26 04:59:20;;;;;;;14.75;14.52;;;;;;;;;;5027540;28;20060;-80
2021/05/26 05:01:47;;;;;;;13.13;12.77;;;;;;;;;;5010314;28;20068;-80
2021/05/26 05:04:13;;;;;;;8.88;8.57;;;;;;;;;;5029490;28;20107;-80
2021/05/26 05:06:40;;;;;;;7.13;7.03;;;;;;;;;;5026552;28;20041;-80
2021/05/26 05:09:08;;;;;;;4.28;2.90;;;;;;;;;;5028101;28;20068;-80
2021/05/26 05:11:35;;;;;;;7.05;6.78;;;;;;;;;;5008669;28;20439;-80
2021/05/26 05:14:02;;;;;;;2.97;1.95;;;;;;;;;;5025236;28;20038;-80
2021/05/26 05:16:29;;;;;;;7.10;2.95;;;;;;;;;;5009645;28;20478;-80
2021/05/26 05:18:55;;;;;;;9.65;9.40;;;;;;;;;;5028329;28;20045;-80
2021/05/26 05:21:22;;;;;;;5.45;4.85;;;;;;;;;;5025135;28;20495;-80
2021/05/26 05:23:49;;;;;;;8.07;7.78;;;;;;;;;;5029636;28;20056;-80
2021/05/26 05:26:16;;;;;;;8.20;4.95;;;;;;;;;;5023408;28;20041;-82
2021/05/26 05:28:43;;;;;;;6.00;2.75;;;;;;;;;;5029232;28;20112;-82
2021/05/26 05:31:10;;;;;;;2.72;2.47;;;;;;;;;;5007638;28;20053;-82
2021/05/26 05:33:36;;;;;;;3.17;3.08;;;;;;;;;;5023130;28;20483;-82
2021/05/26 05:36:03;;;;;;;3.55;2.08;;;;;;;;;;4992455;28;20415;-82
2021/05/26 05:38:30;;;;;;;2.38;2.38;;;;;;;;;;5005666;28;20046;-82
2021/05/26 05:40:57;;;;;;;1.75;1.65;;;;;;;;;;5016639;28;20042;-82
2021/05/26 05:43:23;;;;;;;3.50;2.55;;;;;;;;;;5009428;28;20053;-82
2021/05/26 05:45:50;;;;;;;1.85;1.75;;;;;;;;;;5023384;28;20065;-82
2021/05/26 05:48:17;;;;;;;4.18;2.17;;;;;;;;;;5009307;28;20050;-82
2021/05/26 05:50:44;;;;;;;3.13;2.03;;;;;;;;;;5007552;28;20037;-82
2021/05/26 05:53:12;;;;;;;2.10;1.88;;;;;;;;;;5024196;28;20423;-83
2021/05/26 05:55:38;;;;;;;6.40;2.10;;;;;;;;;;5015601;28;20046;-82
2021/05/26 05:58:05;;;;;;;2.72;2.60;;;;;;;;;;5003944;28;20048;-82
2021/05/26 06:00:32;;;;;;;4.07;1.83;;;;;;;;;;5009884;28;20041;-82
2021/05/26 06:02:59;;;;;;;2.97;1.27;;;;;;;;;;5010140;28;20418;-82
2021/05/26 06:05:30;;;;;;;2.15;1.98;;;;;;;;;;5008632;28;20030;-82
2021/05/26 06:07:57;;;;;;;1.90;1.70;;;;;;;;;;5012625;28;20038;-82
2021/05/26 06:10:24;;;;;;;2.15;1.90;;;;;;;;;;5008636;28;20092;-82
2021/05/26 06:12:53;;;;;;;4.40;2.30;;;;;;;;;;5011126;28;20046;-82
2021/05/26 06:15:21;;;;;;;2.35;1.75;;;;;;;;;;5010804;28;20042;-82
2021/05/26 06:17:47;;;;;;;1.45;1.45;;;;;;;;;;5006579;28;20046;-82
2021/05/26 06:20:14;;;;;;;1.33;1.33;;;;;;;;;;5019311;28;20061;-82
2021/05/26 06:22:41;;;;;;;4.82;2.75;;;;;;;;;;4991929;28;20496;-82
2021/05/26 06:25:09;;;;;;;3.15;1.67;;;;;;;;;;5010494;28;20048;-82
2021/05/26 06:27:36;;;;;;;3.05;1.30;;;;;;;;;;5011881;28;20116;-82
2021/05/26 06:30:02;;;;;;;1.33;1.20;;;;;;;;;;5007086;28;20443;-82
2021/05/26 06:32:29;;;;;;;2.50;1.73;;;;;;;;;;5012102;28;20731;-82
2021/05/26 06:34:56;;;;;;;1.10;1.10;;;;;;;;;;5009958;28;20383;-82
2021/05/26 06:37:22;;;;;;;4.05;1.20;;;;;;;;;;5019722;28;20089;-82
2021/05/26 06:39:49;;;;;;;4.53;1.27;;;;;;;;;;5011666;28;20077;-82
2021/05/26 06:42:16;;;;;;;3.78;1.25;;;;;;;;;;5023068;28;20038;-82
2021/05/26 06:44:43;;;;;;;5.38;1.40;;;;;;;;;;4998351;28;20046;-82
2021/05/26 06:47:09;;;;;;;2.47;1.30;;;;;;;;;;5008245;28;20041;-82
2021/05/26 06:49:37;;;;;;;3.92;1.40;;;;;;;;;;5009396;28;20038;-83
2021/05/26 06:52:04;;;;;;;1.70;1.20;;;;;;;;;;5011595;28;20056;-82
2021/05/26 06:54:31;;;;;;;3.75;1.15;;;;;;;;;;5007749;28;20044;-82
2021/05/26 06:56:58;;;;;;;1.00;1.00;;;;;;;;;;5011222;28;20487;-82
2021/05/26 06:59:24;;;;;;;3.03;1.10;;;;;;;;;;5008221;28;20120;-82
2021/05/26 07:01:52;;;;;;;5.15;1.10;;;;;;;;;;5009598;28;20050;-82
2021/05/26 07:04:19;;;;;;;3.17;0.80;;;;;;;;;;4995883;28;20057;-82
2021/05/26 07:06:45;;;;;;;1.17;0.93;;;;;;;;;;5008013;28;20038;-82
2021/05/26 07:09:12;;;;;;;1.58;0.90;;;;;;;;;;5010903;28;20042;-83
2021/05/26 07:11:39;;;;;;;2.67;1.00;;;;;;;;;;5009103;28;20030;-83
2021/05/26 07:14:06;;;;;;;4.88;0.90;;;;;;;;;;5009052;28;20487;-83
2021/05/26 07:16:32;;;;;;;2.10;1.10;;;;;;;;;;5026719;28;20084;-83
2021/05/26 07:18:59;;;;;;;1.10;1.00;;;;;;;;;;5009398;28;20069;-83
2021/05/26 07:21:27;;;;;;;1.95;1.17;;;;;;;;;;4993305;28;20054;-83
2021/05/26 07:23:56;;;;;;;2.63;0.85;;;;;;;;;;5008570;28;20049;-83
2021/05/26 07:26:23;;;;;;;3.72;0.90;;;;;;;;;;5008300;28;20503;-83
2021/05/26 07:28:50;;;;;;;1.15;1.00;;;;;;;;;;5011410;28;20064;-83
2021/05/26 07:31:17;;;;;;;1.90;0.90;;;;;;;;;;5019076;28;20043;-82
2021/05/26 07:33:45;;;;;;;2.40;0.90;;;;;;;;;;5009611;28;20048;-83
2021/05/26 07:36:12;;;;;;;3.30;0.90;;;;;;;;;;5010305;28;20491;-83
2021/05/26 07:38:40;;;;;;;1.23;0.95;;;;;;;;;;5010850;28;20080;-83
2021/05/26 07:41:07;;;;;;;6.35;0.80;;;;;;;;;;5011881;28;20610;-83
2021/05/26 07:43:34;;;;;;;2.67;0.85;;;;;;;;;;5004577;28;20129;-83
2021/05/26 07:46:02;;;;;;;0.98;0.70;;;;;;;;;;5017795;28;20089;-82
2021/05/26 07:48:28;;;;;;;1.73;0.80;;;;;;;;;;5010108;28;20037;-83
2021/05/26 07:50:55;;;;;;;1.13;0.80;;;;;;;;;;5007727;28;20046;-83
2021/05/26 07:53:22;;;;;;;2.78;1.00;;;;;;;;;;5010614;28;20046;-83
2021/05/26 07:55:49;;;;;;;3.45;0.80;;;;;;;;;;4999365;28;20054;-83
2021/05/26 07:58:16;;;;;;;1.52;0.80;;;;;;;;;;5005975;28;20048;-83
2021/05/26 08:00:48;;;;;;;2.95;0.80;;;;;;;;;;5020134;28;20042;-83
2021/05/26 08:03:15;;;;;;;4.50;0.80;;;;;;;;;;5004599;28;20042;-83
2021/05/26 08:05:42;;;;;;;1.95;0.85;;;;;;;;;;5009149;28;20512;-83
2021/05/26 08:08:09;;;;;;;1.98;0.80;;;;;;;;;;5006613;28;20092;-83
2021/05/26 08:10:36;;;;;;;3.20;0.80;;;;;;;;;;5007292;28;20069;-83
2021/05/26 08:13:02;;;;;;;2.97;1.00;;;;;;;;;;5009011;28;20434;-83
2021/05/26 08:15:29;;;;;;;4.72;0.93;;;;;;;;;;5008827;28;20538;-83
2021/05/26 08:17:56;;;;;;;2.03;1.08;;;;;;;;;;5009599;28;20037;-83
2021/05/26 08:20:23;;;;;;;1.35;0.90;;;;;;;;;;5007530;28;20383;-83
2021/05/26 08:22:49;;;;;;;2.25;2.10;;;;;;;;;;5006253;28;20046;-83
2021/05/26 08:25:18;;;;;;;3.65;1.02;;;;;;;;;;5008805;28;20044;-83
2021/05/26 08:27:45;;;;;;;2.30;0.80;;;;;;;;;;5001529;28;20034;-83
2021/05/26 08:30:12;;;;;;;2.80;0.70;;;;;;;;;;5006740;28;20042;-84
2021/05/26 08:32:39;;;;;;;2.47;0.80;;;;;;;;;;5005998;28;20034;-83
2021/05/26 08:35:06;;;;;;;1.40;1.13;;;;;;;;;;5000888;28;20037;-83
2021/05/26 08:37:33;;;;;;;2.85;0.88;;;;;;;;;;5009762;28;20030;-83
2021/05/26 08:40:00;;;;;;;0.80;0.70;;;;;;;;;;5004654;28;20038;-83
2021/05/26 08:42:27;;;;;;;1.15;0.70;;;;;;;;;;5007599;28;20042;-84
2021/05/26 08:44:54;;;;;;;0.90;0.77;;;;;;;;;;5009593;28;20038;-84
2021/05/26 08:47:25;;;;;;;2.20;0.70;;;;;;;;;;5005528;28;20040;-83
2021/05/26 08:49:52;;;;;;;0.70;0.70;;;;;;;;;;5008138;28;20113;-84
2021/05/26 08:52:18;;;;;;;1.38;0.70;;;;;;;;;;4991700;28;20050;-84
2021/05/26 08:54:47;;;;;;;2.42;0.73;;;;;;;;;;5006544;28;20092;-83
2021/05/26 08:57:15;;;;;;;0.70;0.70;;;;;;;;;;4990110;28;20054;-83
2021/05/26 08:59:42;;;;;;;6.30;0.68;;;;;;;;;;5017307;28;20391;-83
2021/05/26 09:02:12;;;;;;;1.08;0.70;;;;;;;;;;5008226;28;20044;-83
2021/05/26 09:04:40;;;;;;;2.10;0.70;;;;;;;;;;5007150;28;20054;-83
2021/05/26 09:07:32;;;;;;;1.35;0.80;;;;;;;;;;5007297;28;20415;-84
2021/05/26 09:10:00;;;;;;;0.80;0.80;;;;;;;;;;4992936;28;20070;-84
2021/05/26 09:12:27;;;;;;;0.90;0.80;;;;;;;;;;5005689;28;20038;-84
2021/05/26 09:14:54;;;;;;;4.47;0.70;;;;;;;;;;5017125;28;20034;-84
2021/05/26 09:17:21;;;;;;;1.90;0.70;;;;;;;;;;5007179;28;20070;-84
2021/05/26 09:19:48;;;;;;;2.42;0.70;;;;;;;;;;5006374;28;20053;-84
2021/05/26 09:22:16;;;;;;;5.60;1.02;;;;;;;;;;5008693;28;20080;-83
2021/05/26 09:24:42;;;;;;;3.90;0.70;;;;;;;;;;5007048;28;20038;-84
2021/05/26 09:27:10;;;;;;;3.03;0.80;;;;;;;;;;5005015;28;20049;-84
2021/05/26 09:29:42;;;;;;;1.65;0.90;;;;;;;;;;5011605;28;20049;-84
2021/05/26 09:32:08;;;;;;;3.35;0.80;;;;;;;;;;5009911;28;20037;-84
2021/05/26 09:34:36;;;;;;;3.13;0.80;;;;;;;;;;5010536;28;20512;-84
2021/05/26 09:37:04;;;;;;;1.50;0.77;;;;;;;;;;5013242;28;20757;-83
2021/05/26 09:39:48;;;;;;;1.00;0.70;;;;;;;;;;5012328;28;20045;-84
2021/05/26 09:42:24;;;;;;;1.38;0.80;;;;;;;;;;5018641;28;20042;-84
2021/05/26 09:45:10;;;;;;;0.93;0.60;;;;;;;;;;5012489;28;20043;-84
2021/05/26 09:47:47;;;;;;;1.10;0.80;;;;;;;;;;5004081;28;20045;-84
2021/05/26 09:50:20;;;;;;;1.13;0.70;;;;;;;;;;5022183;28;20050;-84
2021/05/26 09:52:55;;;;;;;1.75;0.60;;;;;;;;;;5016854;28;20136;-84
2021/05/26 09:55:28;;;;;;;0.98;0.70;;;;;;;;;;5031230;28;20087;-84
2021/05/26 09:57:55;;;;;;;2.17;0.95;;;;;;;;;;5018597;28;20378;-84
2021/05/26 10:00:22;;;;;;;2.95;0.70;;;;;;;;;;5009233;28;20042;-84
2021/05/26 10:02:50;;;;;;;1.10;0.68;;;;;;;;;;5003470;28;21704;-84
2021/05/26 10:05:18;;;;;;;0.65;0.65;;;;;;;;;;5029450;28;20052;-84
2021/05/26 10:07:50;;;;;;;2.13;0.70;;;;;;;;;;5029064;28;20037;-84
2021/05/26 10:10:17;;;;;;;1.13;0.70;;;;;;;;;;5015945;28;20091;-84
2021/05/26 10:12:46;;;;;;;1.27;0.70;;;;;;;;;;5033819;28;20121;-84
2021/05/26 10:15:13;;;;;;;0.77;0.60;;;;;;;;;;5029473;28;20041;-84
2021/05/26 10:17:49;;;;;;;0.60;0.60;;;;;;;;;;5014460;28;20120;-84
2021/05/26 10:20:17;;;;;;;3.40;0.80;;;;;;;;;;5027267;28;20041;-84
2021/05/26 10:22:44;;;;;;;1.90;0.82;;;;;;;;;;5032271;28;20080;-84
2021/05/26 10:25:11;;;;;;;1.08;0.80;;;;;;;;;;5028935;28;20065;-84
2021/05/26 10:27:42;;;;;;;1.92;0.63;;;;;;;;;;5013920;28;20056;-84
2021/05/26 10:30:10;;;;;;;0.65;0.65;;;;;;;;;;5027112;28;20431;-84
2021/05/26 10:32:50;;;;;;;2.92;0.60;;;;;;;;;;4999440;28;20042;-84
2021/05/26 10:35:17;;;;;;;2.28;0.60;;;;;;;;;;5027078;28;20046;-84
2021/05/26 10:37:45;;;;;;;1.52;0.60;;;;;;;;;;5027786;28;20488;-84
2021/05/26 10:40:31;;;;;;;0.75;0.70;;;;;;;;;;5007927;28;20069;-84
2021/05/26 10:43:13;;;;;;;1.55;0.70;;;;;;;;;;5009140;28;20117;-84
2021/05/26 10:45:40;;;;;;;6.57;0.70;;;;;;;;;;5026171;28;20112;-84
2021/05/26 10:48:06;;;;;;;1.90;0.63;;;;;;;;;;5009398;28;20033;-84
2021/05/26 10:50:52;;;;;;;1.40;0.80;;;;;;;;;;5010991;28;20045;-84
2021/05/26 10:53:19;;;;;;;1.65;0.68;;;;;;;;;;5006934;28;20031;-84
2021/05/26 10:55:47;;;;;;;1.65;0.60;;;;;;;;;;5009013;28;20070;-84
2021/05/26 10:58:25;;;;;;;0.70;0.60;;;;;;;;;;5007817;28;20045;-84
2021/05/26 11:01:01;;;;;;;1.05;0.60;;;;;;;;;;5010501;28;20042;-84
2021/05/26 11:03:33;;;;;;;1.42;0.60;;;;;;;;;;5003230;28;20045;-84
2021/05/26 11:06:04;;;;;;;2.45;0.60;;;;;;;;;;5009130;28;20117;-84
2021/05/26 11:08:51;;;;;;;0.75;0.60;;;;;;;;;;5026484;28;20411;-84
2021/05/26 11:11:29;;;;;;;0.80;0.60;;;;;;;;;;5010371;28;20066;-84
2021/05/26 11:13:59;;;;;;;0.85;0.60;;;;;;;;;;5024728;28;20050;-84
2021/05/26 11:16:45;;;;;;;0.50;0.50;;;;;;;;;;5026186;28;20042;-84
2021/05/26 11:19:20;;;;;;;0.82;0.60;;;;;;;;;;5011036;28;20352;-85
2021/05/26 11:21:54;;;;;;;0.60;0.60;;;;;;;;;;5007575;28;20053;-84
2021/05/26 11:24:21;;;;;;;2.05;0.60;;;;;;;;;;4997265;28;20657;-84
2021/05/26 11:26:48;;;;;;;0.77;0.50;;;;;;;;;;4993733;28;20096;-84
2021/05/26 11:29:27;;;;;;;1.63;0.65;;;;;;;;;;4991956;28;20121;-84
2021/05/26 11:32:06;;;;;;;1.67;0.60;;;;;;;;;;5011094;28;20040;-84
2021/05/26 11:34:36;;;;;;;0.60;0.60;;;;;;;;;;5037041;28;20378;-84
2021/05/26 11:37:03;;;;;;;0.60;0.60;;;;;;;;;;5027900;28;20092;-84
2021/05/26 11:39:32;;;;;;;0.52;0.52;;;;;;;;;;5030082;28;20042;-85
2021/05/26 11:42:08;;;;;;;0.52;0.52;;;;;;;;;;5028260;28;20037;-84
2021/05/26 11:44:39;;;;;;;0.57;0.57;;;;;;;;;;5015989;28;20160;-85
2021/05/26 11:47:06;;;;;;;0.60;0.60;;;;;;;;;;5010684;28;20053;-85
2021/05/26 11:49:39;;;;;;;0.68;0.60;;;;;;;;;;5025491;28;20045;-85
2021/05/26 11:52:07;;;;;;;1.27;0.60;;;;;;;;;;5031495;28;20060;-85
2021/05/26 11:54:35;;;;;;;0.60;0.60;;;;;;;;;;5026642;28;20034;-84
2021/05/26 11:57:07;;;;;;;0.50;0.50;;;;;;;;;;5027344;28;20043;-84
2021/05/26 11:59:34;;;;;;;0.60;0.60;;;;;;;;;;5032390;28;20039;-84
2021/05/26 12:02:05;;;;;;;0.52;0.52;;;;;;;;;;5010168;28;20095;-84
2021/05/26 12:04:31;;;;;;;1.05;0.60;;;;;;;;;;5009325;28;20076;-84
2021/05/26 12:07:01;;;;;;;2.45;0.60;;;;;;;;;;5009209;28;20044;-85
2021/05/26 12:09:28;;;;;;;0.55;0.55;;;;;;;;;;5028974;28;20049;-85
2021/05/26 12:11:56;;;;;;;2.10;0.60;;;;;;;;;;5010484;28;20053;-85
2021/05/26 12:14:27;;;;;;;0.60;0.60;;;;;;;;;;4999879;28;20045;-84
2021/05/26 12:16:54;;;;;;;0.60;0.60;;;;;;;;;;5029481;28;20053;-84
2021/05/26 12:19:28;;;;;;;0.70;0.63;;;;;;;;;;5001708;28;20049;-85
2021/05/26 12:22:08;;;;;;;1.65;1.02;;;;;;;;;;5022600;28;20513;-85
2021/05/26 12:24:50;;;;;;;0.60;0.60;;;;;;;;;;5029322;28;20083;-85
2021/05/26 12:27:30;;;;;;;0.60;0.60;;;;;;;;;;5027975;28;20065;-85
2021/05/26 12:30:16;;;;;;;0.70;0.60;;;;;;;;;;5010234;28;20281;-84
2021/05/26 12:32:43;;;;;;;0.60;0.60;;;;;;;;;;5027521;28;20040;-79
2021/05/26 12:35:13;;;;;;;1.25;0.63;;;;;;;;;;5035571;28;20073;-79
2021/05/26 12:37:41;;;;;;;1.15;0.70;;;;;;;;;;5019906;28;20091;-79
2021/05/26 12:40:08;;;;;;;1.90;0.60;;;;;;;;;;5025531;28;20379;-79
2021/05/26 12:42:39;;;;;;;1.02;0.60;;;;;;;;;;5024604;28;20041;-79
2021/05/26 12:45:25;;;;;;;2.25;0.60;;;;;;;;;;5023295;28;20055;-79
2021/05/26 12:47:53;;;;;;;0.88;0.60;;;;;;;;;;5027184;28;20049;-79
2021/05/26 12:50:22;;;;;;;0.70;0.60;;;;;;;;;;5024921;28;20044;-79
2021/05/26 12:52:55;;;;;;;2.60;0.60;;;;;;;;;;5030370;28;20068;-79
2021/05/26 12:55:24;;;;;;;2.67;0.60;;;;;;;;;;5025975;28;20072;-79
2021/05/26 12:58:00;;;;;;;1.73;0.52;;;;;;;;;;5024594;28;20542;-79
2021/05/26 13:00:27;;;;;;;0.65;0.55;;;;;;;;;;4996265;28;20042;-79
2021/05/26 13:03:07;;;;;;;2.00;0.60;;;;;;;;;;5026271;28;20045;-79
2021/05/26 13:05:41;;;;;;;0.60;0.60;;;;;;;;;;5027871;28;20037;-79
2021/05/26 13:08:09;;;;;;;2.72;0.60;;;;;;;;;;5028338;28;20037;-79
2021/05/26 13:10:44;;;;;;;0.55;0.55;;;;;;;;;;5024634;28;20037;-79
2021/05/26 13:13:18;;;;;;;1.50;0.60;;;;;;;;;;5011658;28;20041;-79
2021/05/26 13:15:46;;;;;;;0.55;0.50;;;;;;;;;;5026214;28;20052;-79
2021/05/26 13:18:14;;;;;;;1.05;0.60;;;;;;;;;;5024929;28;20037;-79
2021/05/26 13:20:42;;;;;;;0.85;0.60;;;;;;;;;;5026628;28;20136;-79
2021/05/26 13:23:09;;;;;;;1.30;0.60;;;;;;;;;;5027286;28;20043;-79
2021/05/26 13:25:37;;;;;;;0.50;0.50;;;;;;;;;;5026883;28;20388;-79
2021/05/26 13:28:07;;;;;;;2.53;0.50;;;;;;;;;;5022972;28;20526;-79
2021/05/26 13:30:34;;;;;;;0.65;0.52;;;;;;;;;;5024121;28;20046;-79
2021/05/26 13:33:01;;;;;;;1.17;0.60;;;;;;;;;;5025492;28;20479;-79
2021/05/26 13:35:27;;;;;;;2.35;0.50;;;;;;;;;;5009241;28;20087;-79
2021/05/26 13:37:55;;;;;;;3.72;0.70;;;;;;;;;;5027156;28;20543;-79
2021/05/26 13:40:23;;;;;;;0.88;0.50;;;;;;;;;;5011241;28;20081;-79
2021/05/26 13:42:50;;;;;;;1.75;0.60;;;;;;;;;;5026115;28;20402;-79
2021/05/26 13:45:18;;;;;;;0.70;0.60;;;;;;;;;;5028608;28;20092;-80
2021/05/26 13:47:45;;;;;;;0.50;0.50;;;;;;;;;;5026977;28;20092;-79
2021/05/26 13:50:16;;;;;;;3.00;0.60;;;;;;;;;;5027513;28;20052;-79
2021/05/26 13:52:47;;;;;;;0.95;0.50;;;;;;;;;;5028830;28;20060;-79
2021/05/26 13:55:16;;;;;;;1.15;0.60;;;;;;;;;;5026159;28;20053;-79
2021/05/26 13:57:43;;;;;;;0.80;0.60;;;;;;;;;;5027107;28;20099;-79
2021/05/26 14:00:11;;;;;;;0.70;0.70;;;;;;;;;;5026913;28;20069;-79
2021/05/26 14:02:39;;;;;;;3.83;0.65;;;;;;;;;;5025935;28;20084;-79
2021/05/26 14:05:08;;;;;;;1.85;0.60;;;;;;;;;;5028525;28;20555;-79
2021/05/26 14:07:35;;;;;;;1.67;0.50;;;;;;;;;;5011689;28;20038;-79
2021/05/26 14:10:03;;;;;;;0.60;0.47;;;;;;;;;;5027998;28;20495;-79
2021/05/26 14:12:30;;;;;;;0.85;0.50;;;;;;;;;;5014742;28;20041;-80
2021/05/26 14:14:57;;;;;;;0.98;0.50;;;;;;;;;;5023412;28;20058;-79
2021/05/26 14:17:24;;;;;;;1.55;0.55;;;;;;;;;;5009599;28;20053;-79
2021/05/26 14:19:51;;;;;;;0.50;0.50;;;;;;;;;;5026072;28;20037;-79
2021/05/26 14:22:18;;;;;;;1.40;0.68;;;;;;;;;;5028751;28;21510;-80
2021/05/26 14:24:45;;;;;;;1.13;0.50;;;;;;;;;;5032428;28;20518;-80
2021/05/26 14:27:14;;;;;;;2.47;0.40;;;;;;;;;;5027224;28;20057;-79
2021/05/26 14:29:41;;;;;;;1.05;0.50;;;;;;;;;;5030318;28;20046;-79
2021/05/26 14:32:08;;;;;;;0.50;0.50;;;;;;;;;;5030739;28;20141;-79
2021/05/26 14:34:36;;;;;;;0.40;0.40;;;;;;;;;;5011889;28;20124;-79
2021/05/26 14:37:09;;;;;;;0.50;0.50;;;;;;;;;;5033110;28;20045;-79
2021/05/26 14:39:38;;;;;;;1.58;0.43;;;;;;;;;;5023487;28;20037;-79
2021/05/26 14:42:05;;;;;;;2.80;0.50;;;;;;;;;;5032219;28;20049;-79
2021/05/26 14:44:32;;;;;;;0.60;0.60;;;;;;;;;;5017429;28;20041;-80
2021/05/26 14:46:59;;;;;;;0.50;0.50;;;;;;;;;;5027592;28;20080;-80